sensor_id;sensor_type;location;lat;lon;timestamp;temperature;humidity
10702;DHT22;5402;50.004;8.246;2023-01-23T00:02:07;2.50;99.90
10702;DHT22;5402;50.004;8.246;2023-01-23T00:04:33;2.40;99.90
10702;DHT22;5402;50.004;8.246;2023-01-23T00:07:02;2.40;99.90
10702;DHT22;5402;50.004;8.246;2023-01-23T00:09:29;2.40;99.90
10702;DHT22;5402;50.004;8.246;2023-01-23T00:11:56;2.40;99.90
10702;DHT22;5402;50.004;8.246;2023-01-23T00:14:23;2.40;99.90
10702;DHT22;5402;50.004;8.246;2023-01-23T00:16:49;2.40;99.90
10702;DHT22;5402;50.004;8.246;2023-01-23T00:19:16;2.40;99.90
10702;DHT22;5402;50.004;8.246;2023-01-23T00:21:43;2.40;99.90
10702;DHT22;5402;50.004;8.246;2023-01-23T00:24:11;2.40;99.90
10702;DHT22;5402;50.004;8.246;2023-01-23T00:26:38;2.40;99.90
10702;DHT22;5402;50.004;8.246;2023-01-23T00:29:05;2.40;99.90
10702;DHT22;5402;50.004;8.246;2023-01-23T00:31:34;2.40;99.90
10702;DHT22;5402;50.004;8.246;2023-01-23T00:34:03;2.40;99.90
10702;DHT22;5402;50.004;8.246;2023-01-23T00:36:32;2.40;99.90
10702;DHT22;5402;50.004;8.246;2023-01-23T00:38:59;2.20;99.90
10702;DHT22;5402;50.004;8.246;2023-01-23T00:41:27;2.40;99.90
10702;DHT22;5402;50.004;8.246;2023-01-23T00:43:54;2.40;99.90
10702;DHT22;5402;50.004;8.246;2023-01-23T00:46:22;2.40;99.90
10702;DHT22;5402;50.004;8.246;2023-01-23T00:48:48;2.30;99.90
10702;DHT22;5402;50.004;8.246;2023-01-23T00:51:15;2.30;99.90
10702;DHT22;5402;50.004;8.246;2023-01-23T00:53:43;2.30;99.90
10702;DHT22;5402;50.004;8.246;2023-01-23T00:56:10;2.30;99.90
10702;DHT22;5402;50.004;8.246;2023-01-23T00:58:38;2.30;99.90
10702;DHT22;5402;50.004;8.246;2023-01-23T01:01:06;2.30;99.90
10702;DHT22;5402;50.004;8.246;2023-01-23T01:03:34;2.30;99.90
10702;DHT22;5402;50.004;8.246;2023-01-23T01:06:01;2.30;99.90
10702;DHT22;5402;50.004;8.246;2023-01-23T01:08:28;2.30;99.90
10702;DHT22;5402;50.004;8.246;2023-01-23T01:10:54;2.30;99.90
10702;DHT22;5402;50.004;8.246;2023-01-23T01:13:21;2.30;99.90
10702;DHT22;5402;50.004;8.246;2023-01-23T01:15:50;2.30;99.90
10702;DHT22;5402;50.004;8.246;2023-01-23T01:18:17;2.30;99.90
10702;DHT22;5402;50.004;8.246;2023-01-23T01:20:45;2.30;99.90
10702;DHT22;5402;50.004;8.246;2023-01-23T01:23:12;2.30;99.90
10702;DHT22;5402;50.004;8.246;2023-01-23T01:25:39;2.30;99.90
10702;DHT22;5402;50.004;8.246;2023-01-23T01:28:06;2.20;99.90
10702;DHT22;5402;50.004;8.246;2023-01-23T01:30:34;2.30;99.90
10702;DHT22;5402;50.004;8.246;2023-01-23T01:33:03;2.30;99.90
10702;DHT22;5402;50.004;8.246;2023-01-23T01:35:33;2.20;99.90
10702;DHT22;5402;50.004;8.246;2023-01-23T01:38:00;2.20;99.90
10702;DHT22;5402;50.004;8.246;2023-01-23T01:40:30;2.20;99.90
10702;DHT22;5402;50.004;8.246;2023-01-23T01:42:59;2.30;99.90
10702;DHT22;5402;50.004;8.246;2023-01-23T01:46:03;2.30;99.90
10702;DHT22;5402;50.004;8.246;2023-01-23T01:48:35;2.30;99.90
10702;DHT22;5402;50.004;8.246;2023-01-23T01:51:05;2.30;99.90
10702;DHT22;5402;50.004;8.246;2023-01-23T01:53:35;2.40;99.90
10702;DHT22;5402;50.004;8.246;2023-01-23T01:56:04;2.40;99.90
10702;DHT22;5402;50.004;8.246;2023-01-23T01:58:32;2.40;99.90
10702;DHT22;5402;50.004;8.246;2023-01-23T02:00:59;2.40;99.90
10702;DHT22;5402;50.004;8.246;2023-01-23T02:03:26;2.40;99.90
10702;DHT22;5402;50.004;8.246;2023-01-23T02:05:54;2.30;99.90
10702;DHT22;5402;50.004;8.246;2023-01-23T02:08:25;2.30;99.90
10702;DHT22;5402;50.004;8.246;2023-01-23T02:10:57;2.30;99.90
10702;DHT22;5402;50.004;8.246;2023-01-23T02:13:28;2.30;99.90
10702;DHT22;5402;50.004;8.246;2023-01-23T02:16:00;2.30;99.90
10702;DHT22;5402;50.004;8.246;2023-01-23T02:18:30;2.30;99.90
10702;DHT22;5402;50.004;8.246;2023-01-23T02:21:02;2.30;99.90
10702;DHT22;5402;50.004;8.246;2023-01-23T02:23:36;2.30;99.90
10702;DHT22;5402;50.004;8.246;2023-01-23T02:26:06;2.20;99.90
10702;DHT22;5402;50.004;8.246;2023-01-23T02:28:40;2.30;99.90
10702;DHT22;5402;50.004;8.246;2023-01-23T02:31:07;2.30;99.90
10702;DHT22;5402;50.004;8.246;2023-01-23T02:33:44;2.30;99.90
10702;DHT22;5402;50.004;8.246;2023-01-23T02:36:11;2.20;99.90
10702;DHT22;5402;50.004;8.246;2023-01-23T02:38:45;2.30;99.90
10702;DHT22;5402;50.004;8.246;2023-01-23T02:41:17;2.20;99.90
10702;DHT22;5402;50.004;8.246;2023-01-23T02:43:46;2.20;99.90
10702;DHT22;5402;50.004;8.246;2023-01-23T02:46:14;2.20;99.90
10702;DHT22;5402;50.004;8.246;2023-01-23T02:48:43;2.20;99.90
10702;DHT22;5402;50.004;8.246;2023-01-23T02:51:10;2.20;99.90
10702;DHT22;5402;50.004;8.246;2023-01-23T02:53:37;2.20;99.90
10702;DHT22;5402;50.004;8.246;2023-01-23T02:56:04;2.20;99.90
10702;DHT22;5402;50.004;8.246;2023-01-23T02:58:32;2.10;99.90
10702;DHT22;5402;50.004;8.246;2023-01-23T03:01:18;2.20;99.90
10702;DHT22;5402;50.004;8.246;2023-01-23T03:03:44;2.20;99.90
10702;DHT22;5402;50.004;8.246;2023-01-23T03:06:11;2.40;99.90
10702;DHT22;5402;50.004;8.246;2023-01-23T03:08:39;2.30;99.90
10702;DHT22;5402;50.004;8.246;2023-01-23T03:11:13;2.30;99.90
10702;DHT22;5402;50.004;8.246;2023-01-23T03:13:41;2.20;99.90
10702;DHT22;5402;50.004;8.246;2023-01-23T03:16:08;2.10;99.90
10702;DHT22;5402;50.004;8.246;2023-01-23T03:18:34;2.10;99.90
10702;DHT22;5402;50.004;8.246;2023-01-23T03:21:02;2.10;99.90
10702;DHT22;5402;50.004;8.246;2023-01-23T03:23:29;2.10;99.90
10702;DHT22;5402;50.004;8.246;2023-01-23T03:25:55;2.10;99.90
10702;DHT22;5402;50.004;8.246;2023-01-23T03:28:23;2.10;99.90
10702;DHT22;5402;50.004;8.246;2023-01-23T03:31:09;2.00;99.90
10702;DHT22;5402;50.004;8.246;2023-01-23T03:33:36;1.90;99.90
10702;DHT22;5402;50.004;8.246;2023-01-23T03:36:04;1.90;99.90
10702;DHT22;5402;50.004;8.246;2023-01-23T03:38:30;1.90;99.90
10702;DHT22;5402;50.004;8.246;2023-01-23T03:40:57;1.90;99.90
10702;DHT22;5402;50.004;8.246;2023-01-23T03:43:41;1.90;99.90
10702;DHT22;5402;50.004;8.246;2023-01-23T03:46:09;1.90;99.90
10702;DHT22;5402;50.004;8.246;2023-01-23T03:48:36;1.90;99.90
10702;DHT22;5402;50.004;8.246;2023-01-23T03:51:04;2.00;99.90
10702;DHT22;5402;50.004;8.246;2023-01-23T03:53:31;2.00;99.90
10702;DHT22;5402;50.004;8.246;2023-01-23T03:55:58;2.10;99.90
10702;DHT22;5402;50.004;8.246;2023-01-23T03:58:25;2.10;99.90
10702;DHT22;5402;50.004;8.246;2023-01-23T04:00:52;2.10;99.90
10702;DHT22;5402;50.004;8.246;2023-01-23T04:03:20;2.10;99.90
10702;DHT22;5402;50.004;8.246;2023-01-23T04:05:47;2.10;99.90
10702;DHT22;5402;50.004;8.246;2023-01-23T04:08:14;2.10;99.90
10702;DHT22;5402;50.004;8.246;2023-01-23T04:10:41;2.00;99.90
10702;DHT22;5402;50.004;8.246;2023-01-23T04:13:07;2.00;99.90
10702;DHT22;5402;50.004;8.246;2023-01-23T04:15:34;2.00;99.90
10702;DHT22;5402;50.004;8.246;2023-01-23T04:18:01;2.10;99.90
10702;DHT22;5402;50.004;8.246;2023-01-23T04:20:29;2.00;99.90
10702;DHT22;5402;50.004;8.246;2023-01-23T04:22:55;2.00;99.90
10702;DHT22;5402;50.004;8.246;2023-01-23T04:25:22;2.00;99.90
10702;DHT22;5402;50.004;8.246;2023-01-23T04:27:49;2.00;99.90
10702;DHT22;5402;50.004;8.246;2023-01-23T04:30:16;2.00;99.90
10702;DHT22;5402;50.004;8.246;2023-01-23T04:32:43;2.10;99.90
10702;DHT22;5402;50.004;8.246;2023-01-23T04:35:09;2.10;99.90
10702;DHT22;5402;50.004;8.246;2023-01-23T04:37:37;2.10;99.90
10702;DHT22;5402;50.004;8.246;2023-01-23T04:40:05;2.10;99.90
10702;DHT22;5402;50.004;8.246;2023-01-23T04:42:32;2.10;99.90
10702;DHT22;5402;50.004;8.246;2023-01-23T04:44:58;2.10;99.90
10702;DHT22;5402;50.004;8.246;2023-01-23T04:47:25;2.10;99.90
10702;DHT22;5402;50.004;8.246;2023-01-23T04:49:52;2.10;99.90
10702;DHT22;5402;50.004;8.246;2023-01-23T04:52:18;2.10;99.90
10702;DHT22;5402;50.004;8.246;2023-01-23T04:54:46;2.10;99.90
10702;DHT22;5402;50.004;8.246;2023-01-23T04:57:13;2.10;99.90
10702;DHT22;5402;50.004;8.246;2023-01-23T04:59:40;2.10;99.90
10702;DHT22;5402;50.004;8.246;2023-01-23T05:02:07;2.10;99.90
10702;DHT22;5402;50.004;8.246;2023-01-23T05:04:34;2.20;99.90
10702;DHT22;5402;50.004;8.246;2023-01-23T05:07:00;2.30;99.90
10702;DHT22;5402;50.004;8.246;2023-01-23T05:09:27;2.20;99.90
10702;DHT22;5402;50.004;8.246;2023-01-23T05:11:55;2.20;99.90
10702;DHT22;5402;50.004;8.246;2023-01-23T05:14:22;2.30;99.90
10702;DHT22;5402;50.004;8.246;2023-01-23T05:16:49;2.30;99.90
10702;DHT22;5402;50.004;8.246;2023-01-23T05:19:16;2.30;99.90
10702;DHT22;5402;50.004;8.246;2023-01-23T05:21:43;2.30;99.90
10702;DHT22;5402;50.004;8.246;2023-01-23T05:24:09;2.30;99.90
10702;DHT22;5402;50.004;8.246;2023-01-23T05:26:36;2.30;99.90
10702;DHT22;5402;50.004;8.246;2023-01-23T05:29:04;2.30;99.90
10702;DHT22;5402;50.004;8.246;2023-01-23T05:31:31;2.30;99.90
10702;DHT22;5402;50.004;8.246;2023-01-23T05:33:58;2.20;99.90
10702;DHT22;5402;50.004;8.246;2023-01-23T05:36:24;2.30;99.90
10702;DHT22;5402;50.004;8.246;2023-01-23T05:38:52;2.30;99.90
10702;DHT22;5402;50.004;8.246;2023-01-23T05:41:19;2.30;99.90
10702;DHT22;5402;50.004;8.246;2023-01-23T05:43:46;2.30;99.90
10702;DHT22;5402;50.004;8.246;2023-01-23T05:46:16;2.20;99.90
10702;DHT22;5402;50.004;8.246;2023-01-23T05:48:42;2.20;99.90
10702;DHT22;5402;50.004;8.246;2023-01-23T05:51:09;2.20;99.90
10702;DHT22;5402;50.004;8.246;2023-01-23T05:53:36;2.30;99.90
10702;DHT22;5402;50.004;8.246;2023-01-23T05:56:05;2.20;99.90
10702;DHT22;5402;50.004;8.246;2023-01-23T05:58:32;2.20;99.90
10702;DHT22;5402;50.004;8.246;2023-01-23T06:01:00;2.30;99.90
10702;DHT22;5402;50.004;8.246;2023-01-23T06:03:29;2.30;99.90
10702;DHT22;5402;50.004;8.246;2023-01-23T06:05:55;2.30;99.90
10702;DHT22;5402;50.004;8.246;2023-01-23T06:08:22;2.30;99.90
10702;DHT22;5402;50.004;8.246;2023-01-23T06:10:49;2.40;99.90
10702;DHT22;5402;50.004;8.246;2023-01-23T06:13:16;2.30;99.90
10702;DHT22;5402;50.004;8.246;2023-01-23T06:15:43;2.40;99.90
10702;DHT22;5402;50.004;8.246;2023-01-23T06:18:09;2.40;99.90
10702;DHT22;5402;50.004;8.246;2023-01-23T06:20:37;2.40;99.90
10702;DHT22;5402;50.004;8.246;2023-01-23T06:23:04;2.50;99.90
10702;DHT22;5402;50.004;8.246;2023-01-23T06:25:31;2.50;99.90
10702;DHT22;5402;50.004;8.246;2023-01-23T06:27:58;2.50;99.90
10702;DHT22;5402;50.004;8.246;2023-01-23T06:30:24;2.50;99.90
10702;DHT22;5402;50.004;8.246;2023-01-23T06:32:51;2.60;99.90
10702;DHT22;5402;50.004;8.246;2023-01-23T06:35:18;2.60;99.90
10702;DHT22;5402;50.004;8.246;2023-01-23T06:37:46;2.60;99.90
10702;DHT22;5402;50.004;8.246;2023-01-23T06:40:13;2.60;99.90
10702;DHT22;5402;50.004;8.246;2023-01-23T06:42:41;2.60;99.90
10702;DHT22;5402;50.004;8.246;2023-01-23T06:45:09;2.60;99.90
10702;DHT22;5402;50.004;8.246;2023-01-23T06:47:36;2.70;99.90
10702;DHT22;5402;50.004;8.246;2023-01-23T06:50:03;2.60;99.90
10702;DHT22;5402;50.004;8.246;2023-01-23T06:52:30;2.60;99.90
10702;DHT22;5402;50.004;8.246;2023-01-23T06:54:59;2.50;99.90
10702;DHT22;5402;50.004;8.246;2023-01-23T06:57:25;2.50;99.90
10702;DHT22;5402;50.004;8.246;2023-01-23T06:59:52;2.50;99.90
10702;DHT22;5402;50.004;8.246;2023-01-23T07:02:19;2.50;99.90
10702;DHT22;5402;50.004;8.246;2023-01-23T07:04:45;2.50;99.90
10702;DHT22;5402;50.004;8.246;2023-01-23T07:07:12;2.50;99.90
10702;DHT22;5402;50.004;8.246;2023-01-23T07:09:39;2.50;99.90
10702;DHT22;5402;50.004;8.246;2023-01-23T07:12:07;2.40;99.90
10702;DHT22;5402;50.004;8.246;2023-01-23T07:14:34;2.50;99.90
10702;DHT22;5402;50.004;8.246;2023-01-23T07:17:01;2.50;99.90
10702;DHT22;5402;50.004;8.246;2023-01-23T07:19:28;2.50;99.90
10702;DHT22;5402;50.004;8.246;2023-01-23T07:21:54;2.40;99.90
10702;DHT22;5402;50.004;8.246;2023-01-23T07:24:21;2.40;99.90
10702;DHT22;5402;50.004;8.246;2023-01-23T07:26:48;2.30;99.90
10702;DHT22;5402;50.004;8.246;2023-01-23T07:29:16;2.30;99.90
10702;DHT22;5402;50.004;8.246;2023-01-23T07:31:42;2.40;99.90
10702;DHT22;5402;50.004;8.246;2023-01-23T07:34:09;2.40;99.90
10702;DHT22;5402;50.004;8.246;2023-01-23T07:36:36;2.50;99.90
10702;DHT22;5402;50.004;8.246;2023-01-23T07:39:03;2.50;99.90
10702;DHT22;5402;50.004;8.246;2023-01-23T07:41:29;2.60;99.90
10702;DHT22;5402;50.004;8.246;2023-01-23T07:43:56;2.60;99.90
10702;DHT22;5402;50.004;8.246;2023-01-23T07:46:24;2.50;99.90
10702;DHT22;5402;50.004;8.246;2023-01-23T07:48:51;2.40;99.90
10702;DHT22;5402;50.004;8.246;2023-01-23T07:51:18;2.40;99.90
10702;DHT22;5402;50.004;8.246;2023-01-23T07:53:44;2.50;99.90
10702;DHT22;5402;50.004;8.246;2023-01-23T07:56:11;2.50;99.90
10702;DHT22;5402;50.004;8.246;2023-01-23T07:58:38;2.50;99.90
10702;DHT22;5402;50.004;8.246;2023-01-23T08:01:08;2.50;99.90
10702;DHT22;5402;50.004;8.246;2023-01-23T08:03:37;2.50;99.90
10702;DHT22;5402;50.004;8.246;2023-01-23T08:06:04;2.60;99.90
10702;DHT22;5402;50.004;8.246;2023-01-23T08:08:31;2.70;99.90
10702;DHT22;5402;50.004;8.246;2023-01-23T08:10:57;2.70;99.90
10702;DHT22;5402;50.004;8.246;2023-01-23T08:13:24;2.70;99.90
10702;DHT22;5402;50.004;8.246;2023-01-23T08:15:51;2.70;99.90
10702;DHT22;5402;50.004;8.246;2023-01-23T08:18:18;2.70;99.90
10702;DHT22;5402;50.004;8.246;2023-01-23T08:20:52;2.70;99.90
10702;DHT22;5402;50.004;8.246;2023-01-23T08:23:19;2.80;99.90
10702;DHT22;5402;50.004;8.246;2023-01-23T08:25:46;2.90;99.90
10702;DHT22;5402;50.004;8.246;2023-01-23T08:28:17;2.80;99.90
10702;DHT22;5402;50.004;8.246;2023-01-23T08:30:44;2.80;99.90
10702;DHT22;5402;50.004;8.246;2023-01-23T08:33:11;2.90;99.90
10702;DHT22;5402;50.004;8.246;2023-01-23T08:35:37;2.90;99.90
10702;DHT22;5402;50.004;8.246;2023-01-23T08:38:05;2.90;99.90
10702;DHT22;5402;50.004;8.246;2023-01-23T08:40:34;2.90;99.90
10702;DHT22;5402;50.004;8.246;2023-01-23T08:43:01;2.90;99.90
10702;DHT22;5402;50.004;8.246;2023-01-23T08:45:28;2.90;99.90
10702;DHT22;5402;50.004;8.246;2023-01-23T08:47:55;3.00;99.90
10702;DHT22;5402;50.004;8.246;2023-01-23T08:50:22;2.90;99.90
10702;DHT22;5402;50.004;8.246;2023-01-23T08:52:49;2.90;99.90
10702;DHT22;5402;50.004;8.246;2023-01-23T08:55:17;2.90;99.90
10702;DHT22;5402;50.004;8.246;2023-01-23T08:57:43;2.90;99.90
10702;DHT22;5402;50.004;8.246;2023-01-23T09:00:11;2.90;99.90
10702;DHT22;5402;50.004;8.246;2023-01-23T09:02:38;2.90;99.90
10702;DHT22;5402;50.004;8.246;2023-01-23T09:05:05;2.90;99.90
10702;DHT22;5402;50.004;8.246;2023-01-23T09:07:32;2.90;99.90
10702;DHT22;5402;50.004;8.246;2023-01-23T09:10:01;2.90;99.90
10702;DHT22;5402;50.004;8.246;2023-01-23T09:12:29;3.00;99.90
10702;DHT22;5402;50.004;8.246;2023-01-23T09:14:56;3.00;99.90
10702;DHT22;5402;50.004;8.246;2023-01-23T09:17:23;3.10;99.90
10702;DHT22;5402;50.004;8.246;2023-01-23T09:19:50;3.20;99.90
10702;DHT22;5402;50.004;8.246;2023-01-23T09:22:17;3.20;99.90
10702;DHT22;5402;50.004;8.246;2023-01-23T09:24:43;3.30;99.90
10702;DHT22;5402;50.004;8.246;2023-01-23T09:27:10;3.20;99.90
10702;DHT22;5402;50.004;8.246;2023-01-23T09:29:38;3.20;99.90
10702;DHT22;5402;50.004;8.246;2023-01-23T09:32:05;3.20;99.90
10702;DHT22;5402;50.004;8.246;2023-01-23T09:34:32;3.30;99.90
10702;DHT22;5402;50.004;8.246;2023-01-23T09:36:59;3.20;99.90
10702;DHT22;5402;50.004;8.246;2023-01-23T09:39:25;3.30;99.90
10702;DHT22;5402;50.004;8.246;2023-01-23T09:41:52;3.20;99.90
10702;DHT22;5402;50.004;8.246;2023-01-23T09:44:23;3.10;99.90
10702;DHT22;5402;50.004;8.246;2023-01-23T09:46:54;3.20;99.90
10702;DHT22;5402;50.004;8.246;2023-01-23T09:49:32;3.20;99.90
10702;DHT22;5402;50.004;8.246;2023-01-23T09:52:09;3.10;99.90
10702;DHT22;5402;50.004;8.246;2023-01-23T09:54:41;3.20;99.90
10702;DHT22;5402;50.004;8.246;2023-01-23T09:57:13;3.30;99.90
10702;DHT22;5402;50.004;8.246;2023-01-23T09:59:44;3.20;99.90
10702;DHT22;5402;50.004;8.246;2023-01-23T10:02:16;3.30;99.90
10702;DHT22;5402;50.004;8.246;2023-01-23T10:04:45;3.30;99.90
10702;DHT22;5402;50.004;8.246;2023-01-23T10:07:26;3.40;99.90
10702;DHT22;5402;50.004;8.246;2023-01-23T10:10:06;3.40;99.90
10702;DHT22;5402;50.004;8.246;2023-01-23T10:12:43;3.40;99.90
10702;DHT22;5402;50.004;8.246;2023-01-23T10:15:20;3.40;99.90
10702;DHT22;5402;50.004;8.246;2023-01-23T10:17:56;3.40;99.90
10702;DHT22;5402;50.004;8.246;2023-01-23T10:20:40;3.50;99.90
10702;DHT22;5402;50.004;8.246;2023-01-23T10:23:23;3.40;99.90
10702;DHT22;5402;50.004;8.246;2023-01-23T10:25:55;3.40;99.90
10702;DHT22;5402;50.004;8.246;2023-01-23T10:28:28;3.50;99.90
10702;DHT22;5402;50.004;8.246;2023-01-23T10:30:59;3.40;99.90
10702;DHT22;5402;50.004;8.246;2023-01-23T10:33:35;3.20;99.90
10702;DHT22;5402;50.004;8.246;2023-01-23T10:36:12;3.50;99.90
10702;DHT22;5402;50.004;8.246;2023-01-23T10:38:52;3.50;99.90
10702;DHT22;5402;50.004;8.246;2023-01-23T10:41:20;3.50;99.90
10702;DHT22;5402;50.004;8.246;2023-01-23T10:43:49;3.50;99.90
10702;DHT22;5402;50.004;8.246;2023-01-23T10:46:18;3.60;99.90
10702;DHT22;5402;50.004;8.246;2023-01-23T10:48:47;3.60;99.90
10702;DHT22;5402;50.004;8.246;2023-01-23T10:51:30;3.70;99.90
10702;DHT22;5402;50.004;8.246;2023-01-23T10:54:13;3.60;99.90
10702;DHT22;5402;50.004;8.246;2023-01-23T10:56:50;3.60;99.90
10702;DHT22;5402;50.004;8.246;2023-01-23T10:59:25;3.60;99.90
10702;DHT22;5402;50.004;8.246;2023-01-23T11:01:59;3.70;99.90
10702;DHT22;5402;50.004;8.246;2023-01-23T11:04:29;3.70;99.90
10702;DHT22;5402;50.004;8.246;2023-01-23T11:07:01;3.70;99.90
10702;DHT22;5402;50.004;8.246;2023-01-23T11:09:28;3.70;99.90
10702;DHT22;5402;50.004;8.246;2023-01-23T11:12:00;3.80;99.90
10702;DHT22;5402;50.004;8.246;2023-01-23T11:14:27;3.80;99.90
10702;DHT22;5402;50.004;8.246;2023-01-23T11:17:01;3.80;99.90
10702;DHT22;5402;50.004;8.246;2023-01-23T11:19:31;3.90;99.90
10702;DHT22;5402;50.004;8.246;2023-01-23T11:21:59;4.00;99.90
10702;DHT22;5402;50.004;8.246;2023-01-23T11:24:30;3.90;99.90
10702;DHT22;5402;50.004;8.246;2023-01-23T11:26:58;3.90;99.90
10702;DHT22;5402;50.004;8.246;2023-01-23T11:29:27;3.90;99.90
10702;DHT22;5402;50.004;8.246;2023-01-23T11:31:57;3.90;99.90
10702;DHT22;5402;50.004;8.246;2023-01-23T11:34:28;4.00;99.90
10702;DHT22;5402;50.004;8.246;2023-01-23T11:37:05;4.10;99.90
10702;DHT22;5402;50.004;8.246;2023-01-23T11:39:46;4.10;99.90
10702;DHT22;5402;50.004;8.246;2023-01-23T11:42:15;4.10;99.90
10702;DHT22;5402;50.004;8.246;2023-01-23T11:44:44;4.10;99.90
10702;DHT22;5402;50.004;8.246;2023-01-23T11:50:17;4.10;99.90
10702;DHT22;5402;50.004;8.246;2023-01-23T11:52:56;4.20;99.90
10702;DHT22;5402;50.004;8.246;2023-01-23T11:55:36;4.30;99.90
10702;DHT22;5402;50.004;8.246;2023-01-23T11:58:11;4.40;99.90
10702;DHT22;5402;50.004;8.246;2023-01-23T12:00:44;4.40;99.90
10702;DHT22;5402;50.004;8.246;2023-01-23T12:03:49;4.50;99.90
10702;DHT22;5402;50.004;8.246;2023-01-23T12:06:30;4.40;99.90
10702;DHT22;5402;50.004;8.246;2023-01-23T12:09:08;4.30;99.90
10702;DHT22;5402;50.004;8.246;2023-01-23T12:11:42;4.20;99.90
10702;DHT22;5402;50.004;8.246;2023-01-23T12:14:18;4.20;99.90
10702;DHT22;5402;50.004;8.246;2023-01-23T12:17:09;4.20;99.90
10702;DHT22;5402;50.004;8.246;2023-01-23T12:20:16;4.20;99.90
10702;DHT22;5402;50.004;8.246;2023-01-23T12:22:54;4.20;99.90
10702;DHT22;5402;50.004;8.246;2023-01-23T12:25:28;4.20;99.90
10702;DHT22;5402;50.004;8.246;2023-01-23T12:28:00;4.30;99.90
10702;DHT22;5402;50.004;8.246;2023-01-23T12:30:48;4.30;99.90
10702;DHT22;5402;50.004;8.246;2023-01-23T12:33:23;4.30;99.90
10702;DHT22;5402;50.004;8.246;2023-01-23T12:36:11;4.30;99.90
10702;DHT22;5402;50.004;8.246;2023-01-23T12:38:48;4.30;99.90
10702;DHT22;5402;50.004;8.246;2023-01-23T12:41:24;4.30;99.90
10702;DHT22;5402;50.004;8.246;2023-01-23T12:43:58;4.30;99.90
10702;DHT22;5402;50.004;8.246;2023-01-23T12:46:34;4.30;99.90
10702;DHT22;5402;50.004;8.246;2023-01-23T12:49:20;4.20;99.90
10702;DHT22;5402;50.004;8.246;2023-01-23T12:51:51;4.20;99.90
10702;DHT22;5402;50.004;8.246;2023-01-23T12:54:26;4.20;99.90
10702;DHT22;5402;50.004;8.246;2023-01-23T12:56:57;4.30;99.90
10702;DHT22;5402;50.004;8.246;2023-01-23T12:59:27;4.30;99.90
10702;DHT22;5402;50.004;8.246;2023-01-23T13:02:04;4.20;99.90
10702;DHT22;5402;50.004;8.246;2023-01-23T13:04:45;4.20;99.90
10702;DHT22;5402;50.004;8.246;2023-01-23T13:07:34;4.30;99.90
10702;DHT22;5402;50.004;8.246;2023-01-23T13:10:19;4.40;99.90
10702;DHT22;5402;50.004;8.246;2023-01-23T13:12:53;4.50;99.90
10702;DHT22;5402;50.004;8.246;2023-01-23T13:15:30;4.50;99.90
10702;DHT22;5402;50.004;8.246;2023-01-23T13:17:58;4.50;99.90
10702;DHT22;5402;50.004;8.246;2023-01-23T13:20:27;4.50;99.90
10702;DHT22;5402;50.004;8.246;2023-01-23T13:23:27;4.50;99.90
10702;DHT22;5402;50.004;8.246;2023-01-23T13:29:03;4.50;99.90
10702;DHT22;5402;50.004;8.246;2023-01-23T13:31:35;4.50;99.90
10702;DHT22;5402;50.004;8.246;2023-01-23T13:34:02;4.60;99.90
10702;DHT22;5402;50.004;8.246;2023-01-23T13:36:34;4.70;99.90
10702;DHT22;5402;50.004;8.246;2023-01-23T13:45:30;4.80;99.90
10702;DHT22;5402;50.004;8.246;2023-01-23T13:48:24;4.80;99.90
10702;DHT22;5402;50.004;8.246;2023-01-23T13:51:18;4.80;99.90
10702;DHT22;5402;50.004;8.246;2023-01-23T13:53:47;4.80;99.90
10702;DHT22;5402;50.004;8.246;2023-01-23T13:56:34;4.80;99.90
10702;DHT22;5402;50.004;8.246;2023-01-23T13:59:10;4.80;99.90
10702;DHT22;5402;50.004;8.246;2023-01-23T14:01:45;4.90;99.90
10702;DHT22;5402;50.004;8.246;2023-01-23T14:04:56;4.90;99.90
10702;DHT22;5402;50.004;8.246;2023-01-23T14:07:41;5.00;99.90
10702;DHT22;5402;50.004;8.246;2023-01-23T14:10:17;4.80;99.90
10702;DHT22;5402;50.004;8.246;2023-01-23T14:12:44;4.80;99.90
10702;DHT22;5402;50.004;8.246;2023-01-23T14:15:22;4.80;99.90
10702;DHT22;5402;50.004;8.246;2023-01-23T14:18:25;4.70;99.90
10702;DHT22;5402;50.004;8.246;2023-01-23T14:20:52;4.70;99.90
10702;DHT22;5402;50.004;8.246;2023-01-23T14:23:29;4.70;99.90
10702;DHT22;5402;50.004;8.246;2023-01-23T14:25:56;4.70;99.90
10702;DHT22;5402;50.004;8.246;2023-01-23T14:28:23;4.70;99.90
10702;DHT22;5402;50.004;8.246;2023-01-23T14:30:59;4.70;99.90
10702;DHT22;5402;50.004;8.246;2023-01-23T14:33:28;4.70;99.90
10702;DHT22;5402;50.004;8.246;2023-01-23T14:35:55;4.70;99.90
10702;DHT22;5402;50.004;8.246;2023-01-23T14:38:27;4.70;99.90
10702;DHT22;5402;50.004;8.246;2023-01-23T14:40:55;4.70;99.90
10702;DHT22;5402;50.004;8.246;2023-01-23T14:43:24;4.70;99.90
10702;DHT22;5402;50.004;8.246;2023-01-23T14:45:58;4.70;99.90
10702;DHT22;5402;50.004;8.246;2023-01-23T14:48:27;4.80;99.90
10702;DHT22;5402;50.004;8.246;2023-01-23T14:51:02;4.80;99.90
10702;DHT22;5402;50.004;8.246;2023-01-23T14:53:30;4.90;99.90
10702;DHT22;5402;50.004;8.246;2023-01-23T14:55:58;5.00;99.90
10702;DHT22;5402;50.004;8.246;2023-01-23T14:58:27;5.10;99.90
10702;DHT22;5402;50.004;8.246;2023-01-23T15:00:54;5.00;99.90
10702;DHT22;5402;50.004;8.246;2023-01-23T15:03:40;5.00;99.90
10702;DHT22;5402;50.004;8.246;2023-01-23T15:06:17;4.90;99.90
10702;DHT22;5402;50.004;8.246;2023-01-23T15:08:45;4.80;99.90
10702;DHT22;5402;50.004;8.246;2023-01-23T15:11:12;4.80;99.90
10702;DHT22;5402;50.004;8.246;2023-01-23T15:13:42;4.60;99.90
10702;DHT22;5402;50.004;8.246;2023-01-23T15:16:18;4.60;99.90
10702;DHT22;5402;50.004;8.246;2023-01-23T15:18:55;4.60;99.90
10702;DHT22;5402;50.004;8.246;2023-01-23T15:21:29;4.70;99.90
10702;DHT22;5402;50.004;8.246;2023-01-23T15:24:26;4.70;99.90
10702;DHT22;5402;50.004;8.246;2023-01-23T15:27:01;4.60;99.90
10702;DHT22;5402;50.004;8.246;2023-01-23T15:29:31;5.00;99.90
10702;DHT22;5402;50.004;8.246;2023-01-23T15:31:59;5.10;99.90
10702;DHT22;5402;50.004;8.246;2023-01-23T15:34:30;4.60;99.90
10702;DHT22;5402;50.004;8.246;2023-01-23T15:37:05;4.40;99.90
10702;DHT22;5402;50.004;8.246;2023-01-23T15:39:54;5.00;99.90
10702;DHT22;5402;50.004;8.246;2023-01-23T15:42:28;4.40;99.90
10702;DHT22;5402;50.004;8.246;2023-01-23T15:44:55;4.30;99.90
10702;DHT22;5402;50.004;8.246;2023-01-23T15:47:28;4.30;99.90
10702;DHT22;5402;50.004;8.246;2023-01-23T15:49:56;4.20;99.90
10702;DHT22;5402;50.004;8.246;2023-01-23T15:52:27;4.20;99.90
10702;DHT22;5402;50.004;8.246;2023-01-23T15:54:57;4.20;99.90
10702;DHT22;5402;50.004;8.246;2023-01-23T15:57:27;4.50;99.90
10702;DHT22;5402;50.004;8.246;2023-01-23T15:59:56;4.10;99.90
10702;DHT22;5402;50.004;8.246;2023-01-23T16:02:27;4.00;99.90
10702;DHT22;5402;50.004;8.246;2023-01-23T16:04:57;4.20;99.90
10702;DHT22;5402;50.004;8.246;2023-01-23T16:07:31;4.00;99.90
10702;DHT22;5402;50.004;8.246;2023-01-23T16:10:04;4.40;99.90
10702;DHT22;5402;50.004;8.246;2023-01-23T16:12:35;3.90;99.90
10702;DHT22;5402;50.004;8.246;2023-01-23T16:15:13;3.80;99.90
10702;DHT22;5402;50.004;8.246;2023-01-23T16:17:40;3.70;99.90
10702;DHT22;5402;50.004;8.246;2023-01-23T16:20:12;3.60;99.90
10702;DHT22;5402;50.004;8.246;2023-01-23T16:22:40;3.60;99.90
10702;DHT22;5402;50.004;8.246;2023-01-23T16:25:17;3.60;99.90
10702;DHT22;5402;50.004;8.246;2023-01-23T16:27:44;3.50;99.90
10702;DHT22;5402;50.004;8.246;2023-01-23T16:30:18;3.60;99.90
10702;DHT22;5402;50.004;8.246;2023-01-23T16:32:50;3.50;99.90
10702;DHT22;5402;50.004;8.246;2023-01-23T16:35:17;3.40;99.90
10702;DHT22;5402;50.004;8.246;2023-01-23T16:37:46;3.30;99.90